Time;durP1;ratioP1;P1;durP2;ratioP2;P2;SDS_P1;SDS_P2;PMS_P1;PMS_P2;Temp;Humidity;BMP_temperature;BMP_pressure;BME280_temperature;BME280_humidity;BME280_pressure;Samples;Min_cycle;Max_cycle;Signal;HPM_P1;HPM_P2
2022/07/04 00:00:23;;;;;;;7.55;4.65;;;16.30;99.90;;;;;;5056784;28;20262;-81
2022/07/04 00:02:50;;;;;;;7.07;4.88;;;16.30;99.90;;;;;;5055640;28;20225;-81
2022/07/04 00:05:17;;;;;;;9.13;5.32;;;16.20;99.90;;;;;;5057124;28;20172;-81
2022/07/04 00:07:45;;;;;;;11.57;6.32;;;16.20;99.90;;;;;;5056713;28;20200;-81
2022/07/04 00:10:13;;;;;;;9.15;5.38;;;16.20;99.90;;;;;;5055289;28;20320;-81
2022/07/04 00:12:39;;;;;;;9.02;5.63;;;16.20;99.90;;;;;;5057507;28;20183;-81
2022/07/04 00:15:06;;;;;;;8.63;5.72;;;16.10;99.90;;;;;;5063268;28;20172;-80
2022/07/04 00:17:32;;;;;;;8.77;5.50;;;16.10;99.90;;;;;;5065413;28;20191;-80
2022/07/04 00:19:58;;;;;;;9.93;5.25;;;16.10;99.90;;;;;;5068012;28;20179;-81
2022/07/04 00:22:24;;;;;;;10.20;5.70;;;16.10;99.90;;;;;;5062622;28;20278;-81
2022/07/04 00:24:49;;;;;;;7.35;4.88;;;16.10;99.90;;;;;;5060321;28;20653;-81
2022/07/04 00:27:15;;;;;;;8.25;5.45;;;16.10;99.90;;;;;;5057767;28;20199;-81
2022/07/04 00:29:41;;;;;;;10.18;5.28;;;16.10;99.90;;;;;;5057157;28;20534;-80
2022/07/04 00:32:07;;;;;;;7.90;5.18;;;16.10;99.90;;;;;;5057227;28;20184;-80
2022/07/04 00:34:33;;;;;;;8.25;5.45;;;16.00;99.90;;;;;;5058865;28;20274;-81
2022/07/04 00:36:58;;;;;;;10.35;5.38;;;16.00;99.90;;;;;;5058413;28;20656;-81
2022/07/04 00:39:24;;;;;;;7.53;4.65;;;15.90;99.90;;;;;;5056709;28;20191;-81
2022/07/04 00:41:49;;;;;;;8.35;5.00;;;16.00;99.90;;;;;;5054749;28;20637;-81
2022/07/04 00:44:15;;;;;;;8.45;5.30;;;16.00;99.90;;;;;;5022611;28;20215;-81
2022/07/04 00:46:42;;;;;;;7.95;4.97;;;15.90;99.90;;;;;;5055566;28;20196;-81
2022/07/04 00:49:10;;;;;;;6.55;4.35;;;15.80;99.90;;;;;;5055166;28;20180;-81
2022/07/04 00:51:37;;;;;;;8.02;5.10;;;15.80;99.90;;;;;;5054337;28;20188;-81
2022/07/04 00:54:04;;;;;;;7.55;4.85;;;15.80;99.90;;;;;;5037135;28;20239;-82
2022/07/04 00:56:30;;;;;;;11.10;5.47;;;15.70;99.90;;;;;;5053925;28;20714;-81
2022/07/04 00:58:56;;;;;;;9.13;5.63;;;15.60;99.90;;;;;;5055284;28;20180;-82
2022/07/04 01:01:21;;;;;;;8.68;5.00;;;15.60;99.90;;;;;;5055040;28;20183;-82
2022/07/04 01:03:47;;;;;;;9.02;5.22;;;15.60;99.90;;;;;;5054856;28;20184;-82
2022/07/04 01:06:18;;;;;;;9.27;5.53;;;15.60;99.90;;;;;;5054854;28;20202;-81
2022/07/04 01:08:44;;;;;;;9.35;5.57;;;15.60;99.90;;;;;;5053811;28;20199;-81
2022/07/04 01:11:10;;;;;;;10.07;6.00;;;15.60;99.90;;;;;;5055109;28;20180;-81
2022/07/04 01:13:36;;;;;;;10.48;6.18;;;15.50;99.90;;;;;;5055008;28;20176;-81
2022/07/04 01:16:03;;;;;;;8.15;5.60;;;15.50;99.90;;;;;;5053660;28;20187;-81
2022/07/04 01:18:28;;;;;;;11.15;5.70;;;15.50;99.90;;;;;;5053806;28;20180;-81
2022/07/04 01:20:54;;;;;;;9.70;5.35;;;15.40;99.90;;;;;;5054536;28;20180;-81
2022/07/04 01:23:20;;;;;;;9.48;5.10;;;15.40;99.90;;;;;;5054592;28;20523;-80
2022/07/04 01:25:45;;;;;;;7.93;5.50;;;15.30;99.90;;;;;;5054759;28;20176;-80
2022/07/04 01:28:11;;;;;;;7.57;5.25;;;15.30;99.90;;;;;;5054051;28;20633;-80
2022/07/04 01:30:37;;;;;;;8.80;5.03;;;15.30;99.90;;;;;;5054648;28;20179;-80
2022/07/04 01:33:04;;;;;;;10.98;5.28;;;15.20;99.90;;;;;;5054162;28;20184;-82
2022/07/04 01:35:30;;;;;;;8.38;4.82;;;15.20;99.90;;;;;;5054335;28;20667;-80
2022/07/04 01:37:56;;;;;;;9.70;5.45;;;15.20;99.90;;;;;;5054450;28;20267;-81
2022/07/04 01:40:21;;;;;;;9.82;5.65;;;15.10;99.90;;;;;;5054631;28;20252;-80
2022/07/04 01:42:47;;;;;;;10.07;6.22;;;15.10;99.90;;;;;;5054184;28;20262;-81
2022/07/04 01:45:13;;;;;;;8.60;5.20;;;15.10;99.90;;;;;;5054247;28;20572;-81
2022/07/04 01:47:39;;;;;;;9.35;5.13;;;15.00;99.90;;;;;;5054049;28;20203;-80
2022/07/04 01:50:07;;;;;;;9.30;6.00;;;14.90;99.90;;;;;;5052730;28;20511;-82
2022/07/04 01:52:33;;;;;;;9.98;6.38;;;15.00;99.90;;;;;;5054237;28;20200;-81
2022/07/04 01:54:58;;;;;;;10.13;6.07;;;15.00;99.90;;;;;;5054544;28;20567;-80
2022/07/04 01:57:24;;;;;;;7.57;5.30;;;15.00;99.90;;;;;;5052814;28;20184;-80
2022/07/04 02:02:34;;;;;;;9.73;5.88;;;15.00;99.90;;;;;;5054597;28;20175;-81
2022/07/04 02:05:00;;;;;;;9.55;5.45;;;14.90;99.90;;;;;;5052617;28;20176;-80
2022/07/04 02:07:26;;;;;;;9.80;5.50;;;15.00;99.90;;;;;;5053642;28;20207;-80
2022/07/04 02:09:52;;;;;;;9.85;5.28;;;15.00;99.90;;;;;;5053699;28;20176;-81
2022/07/04 02:15:03;;;;;;;9.23;4.95;;;15.00;99.90;;;;;;5055810;28;20183;-81
2022/07/04 02:17:28;;;;;;;8.00;5.38;;;15.00;99.90;;;;;;5055708;28;20184;-81
2022/07/04 02:19:54;;;;;;;10.95;6.13;;;15.00;99.90;;;;;;5055470;28;20587;-80
2022/07/04 02:22:20;;;;;;;10.13;6.15;;;15.00;99.90;;;;;;5061643;28;20194;-81
2022/07/04 02:24:46;;;;;;;7.75;5.25;;;15.00;99.90;;;;;;5060637;28;20184;-81
2022/07/04 02:27:11;;;;;;;11.40;5.63;;;15.00;99.90;;;;;;5078152;28;20268;-84
2022/07/04 02:29:37;;;;;;;9.95;5.50;;;14.90;99.90;;;;;;5078223;28;20171;-81
2022/07/04 02:32:03;;;;;;;8.55;4.88;;;15.00;99.90;;;;;;5069954;28;20618;-81
2022/07/04 02:34:29;;;;;;;8.50;5.13;;;15.00;99.90;;;;;;5056642;28;20176;-81
2022/07/04 02:36:55;;;;;;;8.68;4.50;;;15.00;99.90;;;;;;5062123;28;20171;-80
2022/07/04 02:39:20;;;;;;;7.07;4.63;;;15.00;99.90;;;;;;5077035;28;20214;-83
2022/07/04 02:41:46;;;;;;;8.77;4.82;;;15.00;99.90;;;;;;5060275;28;20184;-80
2022/07/04 02:44:12;;;;;;;7.97;4.53;;;15.00;99.90;;;;;;5077416;28;20215;-81
2022/07/04 02:46:37;;;;;;;7.40;4.50;;;15.10;99.90;;;;;;5058605;28;20196;-80
2022/07/04 02:49:03;;;;;;;7.72;4.25;;;15.10;99.90;;;;;;5053685;28;20324;-80
2022/07/04 02:51:29;;;;;;;8.70;4.78;;;15.00;99.90;;;;;;5054643;28;20168;-80
2022/07/04 02:53:55;;;;;;;7.55;4.55;;;15.00;99.90;;;;;;5054856;28;20250;-80
2022/07/04 02:56:21;;;;;;;7.68;4.82;;;15.00;99.90;;;;;;5054447;28;20200;-80
2022/07/04 02:58:47;;;;;;;11.18;5.57;;;15.10;99.90;;;;;;5053076;28;20196;-81
2022/07/04 03:01:13;;;;;;;8.10;5.13;;;15.00;99.90;;;;;;5054500;28;20266;-81
2022/07/04 03:03:40;;;;;;;9.65;5.32;;;15.00;99.90;;;;;;5036566;28;20651;-80
2022/07/04 03:06:07;;;;;;;8.88;4.63;;;15.10;99.90;;;;;;5053679;28;20230;-80
2022/07/04 03:08:33;;;;;;;6.35;4.30;;;15.00;99.90;;;;;;5054481;28;20182;-80
2022/07/04 03:10:59;;;;;;;6.30;4.28;;;15.10;99.90;;;;;;5053040;28;20258;-80
2022/07/04 03:13:25;;;;;;;7.70;4.78;;;15.10;99.90;;;;;;5053243;28;20648;-80
2022/07/04 03:15:51;;;;;;;6.65;4.60;;;15.10;99.90;;;;;;5054171;28;20171;-80
2022/07/04 03:18:17;;;;;;;7.30;4.32;;;15.20;99.90;;;;;;5053158;28;20187;-81
2022/07/04 03:20:43;;;;;;;7.57;4.40;;;15.20;99.90;;;;;;5053239;28;20633;-81
2022/07/04 03:23:09;;;;;;;6.40;4.50;;;15.20;99.90;;;;;;5018447;28;20214;-80
2022/07/04 03:25:35;;;;;;;7.22;4.88;;;15.20;99.90;;;;;;5052800;28;20176;-80
2022/07/04 03:28:01;;;;;;;6.88;4.43;;;15.10;99.90;;;;;;5051880;28;20184;-80
2022/07/04 03:30:26;;;;;;;6.97;4.35;;;15.20;99.90;;;;;;5034807;28;20656;-80
2022/07/04 03:32:52;;;;;;;6.55;4.40;;;15.20;99.90;;;;;;5048547;28;20200;-82
2022/07/04 03:35:17;;;;;;;13.88;4.90;;;15.30;99.90;;;;;;5047193;28;20192;-82
2022/07/04 03:37:43;;;;;;;6.68;4.10;;;15.30;99.90;;;;;;5049672;28;20216;-82
2022/07/04 03:40:09;;;;;;;8.18;4.82;;;15.30;99.90;;;;;;5049704;28;20184;-82
2022/07/04 03:42:35;;;;;;;8.15;5.43;;;15.40;99.90;;;;;;5050735;28;20191;-82
2022/07/04 03:45:01;;;;;;;6.65;4.50;;;15.50;99.90;;;;;;5049688;28;20245;-82
2022/07/04 03:47:27;;;;;;;8.27;4.93;;;15.60;99.90;;;;;;5049408;28;20187;-82
2022/07/04 03:49:52;;;;;;;6.25;4.15;;;15.60;99.90;;;;;;5049919;28;20640;-82
2022/07/04 03:52:18;;;;;;;8.20;4.47;;;15.80;99.90;;;;;;5051175;28;20184;-82
2022/07/04 03:54:44;;;;;;;6.10;3.80;;;15.90;99.90;;;;;;5054425;28;20235;-82
2022/07/04 03:57:09;;;;;;;8.40;5.30;;;15.90;99.90;;;;;;5054820;28;20204;-82
2022/07/04 03:59:35;;;;;;;8.85;5.53;;;15.90;99.90;;;;;;5058946;28;20244;-82
2022/07/04 04:02:01;;;;;;;10.20;4.97;;;15.80;99.90;;;;;;5058075;28;20203;-82
2022/07/04 04:07:11;;;;;;;8.30;4.75;;;15.90;99.90;;;;;;5055790;28;20206;-82
2022/07/04 04:09:37;;;;;;;7.88;5.00;;;16.00;99.90;;;;;;5054519;28;20180;-82
2022/07/04 04:12:02;;;;;;;6.43;4.78;;;16.10;99.90;;;;;;5036765;28;20188;-82
2022/07/04 04:14:28;;;;;;;9.10;5.40;;;16.20;99.90;;;;;;5054021;28;20187;-83
2022/07/04 04:16:54;;;;;;;11.48;6.45;;;16.20;99.90;;;;;;5053801;28;20216;-83
2022/07/04 04:19:19;;;;;;;8.77;5.82;;;16.30;99.90;;;;;;5053415;28;20661;-82
2022/07/04 04:21:45;;;;;;;7.28;5.35;;;16.30;99.90;;;;;;5054427;28;20192;-83
2022/07/04 04:24:11;;;;;;;9.57;6.22;;;16.50;99.90;;;;;;5035657;28;20183;-83
2022/07/04 04:26:37;;;;;;;11.10;6.53;;;16.70;99.90;;;;;;5053623;28;20668;-82
2022/07/04 04:29:03;;;;;;;9.98;5.80;;;16.80;99.90;;;;;;5052378;28;20187;-81
2022/07/04 04:31:30;;;;;;;9.00;5.60;;;16.90;99.90;;;;;;5035976;28;20538;-81
2022/07/04 04:33:56;;;;;;;9.35;6.10;;;17.00;99.90;;;;;;5052498;28;20176;-81
2022/07/04 04:36:22;;;;;;;10.63;6.25;;;17.10;99.90;;;;;;5052703;28;20210;-83
2022/07/04 04:38:48;;;;;;;10.68;6.20;;;17.10;99.90;;;;;;5036069;28;20567;-81
2022/07/04 04:41:14;;;;;;;10.40;6.68;;;17.20;99.90;;;;;;5053908;28;20237;-83
2022/07/04 04:43:39;;;;;;;10.90;6.45;;;17.30;99.90;;;;;;5053255;28;20180;-82
2022/07/04 04:46:05;;;;;;;10.27;5.93;;;17.40;99.90;;;;;;5043664;28;20188;-83
2022/07/04 04:48:31;;;;;;;11.65;6.28;;;17.50;99.90;;;;;;5034570;28;20650;-83
2022/07/04 04:50:56;;;;;;;11.45;6.85;;;17.70;99.90;;;;;;5022319;28;20180;-82
2022/07/04 04:53:25;;;;;;;11.45;7.10;;;17.90;99.90;;;;;;5049219;28;20239;-84
2022/07/04 04:55:52;;;;;;;11.68;6.18;;;18.00;99.90;;;;;;5052211;28;20184;-83
2022/07/04 04:58:18;;;;;;;14.95;7.13;;;17.90;99.90;;;;;;5054392;28;20188;-84
2022/07/04 05:00:44;;;;;;;12.15;7.43;;;18.00;99.90;;;;;;5052797;28;20199;-85
2022/07/04 05:03:09;;;;;;;17.58;9.23;;;18.10;99.90;;;;;;5036223;28;20192;-84
2022/07/04 05:05:36;;;;;;;15.45;9.20;;;18.10;99.90;;;;;;5038131;28;20237;-84
2022/07/04 05:08:02;;;;;;;14.50;8.65;;;18.20;99.90;;;;;;5038866;28;20255;-84
2022/07/04 05:10:27;;;;;;;13.30;7.70;;;18.20;99.90;;;;;;5052356;28;20712;-84
2022/07/04 05:12:53;;;;;;;11.65;7.00;;;18.30;99.90;;;;;;5053303;28;20192;-84
2022/07/04 05:15:18;;;;;;;11.00;7.25;;;18.50;99.90;;;;;;5052800;28;20188;-83
2022/07/04 05:17:44;;;;;;;12.52;7.15;;;18.60;99.90;;;;;;5019993;28;20616;-83
2022/07/04 05:20:10;;;;;;;11.40;6.97;;;18.70;99.90;;;;;;5054078;28;20190;-83
2022/07/04 05:22:36;;;;;;;13.73;7.50;;;18.90;99.90;;;;;;5054074;28;20198;-84
2022/07/04 05:25:01;;;;;;;15.10;7.93;;;19.00;99.90;;;;;;5054644;28;20597;-84
2022/07/04 05:27:27;;;;;;;10.60;6.53;;;19.10;99.90;;;;;;5052963;28;20551;-84
2022/07/04 05:29:53;;;;;;;14.05;7.13;;;19.10;99.90;;;;;;5052379;28;20321;-84
2022/07/04 05:32:18;;;;;;;11.02;6.82;;;19.10;99.90;;;;;;5052392;28;20180;-84
2022/07/04 05:34:44;;;;;;;12.93;7.63;;;19.20;99.90;;;;;;5053540;28;20184;-82
2022/07/04 05:37:09;;;;;;;11.70;7.47;;;19.30;99.90;;;;;;5053242;28;20353;-83
2022/07/04 05:39:35;;;;;;;12.32;6.72;;;19.40;99.90;;;;;;5052345;28;20192;-84
2022/07/04 05:42:01;;;;;;;10.70;7.70;;;19.40;99.90;;;;;;5053633;28;20226;-84
2022/07/04 05:44:28;;;;;;;19.15;8.20;;;19.50;99.90;;;;;;5053342;28;20322;-84
2022/07/04 05:46:54;;;;;;;13.30;8.00;;;19.50;99.90;;;;;;5052033;28;20188;-83
2022/07/04 05:49:19;;;;;;;11.32;6.82;;;19.60;99.90;;;;;;5051602;28;20580;-84
2022/07/04 05:51:45;;;;;;;11.23;6.15;;;19.70;99.90;;;;;;5033032;28;20646;-84
2022/07/04 05:54:10;;;;;;;10.52;6.40;;;19.70;99.90;;;;;;5017013;28;20444;-81
2022/07/04 05:56:37;;;;;;;8.90;5.80;;;19.90;99.90;;;;;;5047334;28;20298;-84
2022/07/04 05:59:03;;;;;;;9.93;6.72;;;20.10;99.90;;;;;;5043016;28;20183;-84
2022/07/04 06:01:29;;;;;;;8.60;5.82;;;20.30;99.90;;;;;;5047379;28;20191;-84
2022/07/04 06:03:54;;;;;;;8.40;5.50;;;20.30;99.90;;;;;;5050263;28;20578;-84
2022/07/04 06:06:20;;;;;;;7.82;5.53;;;20.40;99.90;;;;;;5050456;28;20262;-82
2022/07/04 06:08:45;;;;;;;8.55;5.38;;;20.50;99.90;;;;;;5051521;28;20192;-82
2022/07/04 06:11:11;;;;;;;7.53;5.47;;;20.60;99.90;;;;;;5033895;28;20200;-82
2022/07/04 06:13:37;;;;;;;8.60;5.35;;;20.80;99.90;;;;;;5050488;28;20633;-82
2022/07/04 06:16:03;;;;;;;12.73;6.13;;;21.00;99.90;;;;;;5050248;28;20191;-83
2022/07/04 06:18:29;;;;;;;7.95;5.03;;;21.20;99.90;;;;;;5044428;28;20188;-83
2022/07/04 06:20:55;;;;;;;6.82;4.78;;;21.40;99.90;;;;;;5026845;28;20640;-82
2022/07/04 06:23:20;;;;;;;8.98;4.60;;;21.60;99.90;;;;;;5046719;28;20180;-83
2022/07/04 06:25:46;;;;;;;6.68;5.15;;;21.70;99.90;;;;;;5039923;28;20227;-83
2022/07/04 06:28:12;;;;;;;6.45;4.50;;;21.80;99.90;;;;;;5043117;28;20242;-83
2022/07/04 06:30:38;;;;;;;7.43;4.85;;;21.90;99.90;;;;;;5026878;28;20180;-84
2022/07/04 06:33:03;;;;;;;5.70;4.22;;;21.90;99.90;;;;;;5044927;28;20635;-83
2022/07/04 06:35:47;;;;;;;7.90;4.40;;;22.00;99.90;;;;;;5050224;28;20211;-82
2022/07/04 06:38:16;;;;;;;6.07;4.07;;;22.10;99.90;;;;;;5048412;28;20222;-82
2022/07/04 06:40:42;;;;;;;7.15;4.97;;;22.00;99.90;;;;;;5047848;28;20802;-82
2022/07/04 06:43:08;;;;;;;7.10;4.93;;;22.10;99.90;;;;;;5031044;28;20199;-84
2022/07/04 06:45:34;;;;;;;6.15;3.97;;;22.20;99.90;;;;;;5037489;28;20181;-84
2022/07/04 06:48:01;;;;;;;5.82;4.22;;;22.20;99.90;;;;;;5037978;28;20198;-83
2022/07/04 06:50:27;;;;;;;6.40;4.35;;;22.20;99.90;;;;;;5052449;28;20214;-83
2022/07/04 06:52:53;;;;;;;5.95;4.28;;;22.30;99.90;;;;;;5050606;28;20259;-83
2022/07/04 06:55:18;;;;;;;8.20;4.28;;;22.40;99.90;;;;;;5040203;28;20181;-83
2022/07/04 06:57:44;;;;;;;5.63;3.75;;;22.50;99.90;;;;;;5041927;28;20203;-83
2022/07/04 07:00:10;;;;;;;5.95;3.67;;;22.60;99.90;;;;;;5028394;28;20171;-83
2022/07/04 07:02:37;;;;;;;6.32;3.60;;;22.70;99.90;;;;;;5041664;28;20195;-83
2022/07/04 07:05:03;;;;;;;4.95;3.40;;;22.90;99.90;;;;;;5040552;28;20173;-83
2022/07/04 07:07:29;;;;;;;4.95;4.05;;;23.10;99.90;;;;;;5042879;28;20180;-83
2022/07/04 07:09:56;;;;;;;5.10;3.88;;;23.30;99.90;;;;;;5040531;28;20200;-83
2022/07/04 07:12:22;;;;;;;4.80;3.58;;;23.40;99.90;;;;;;5043869;28;20256;-84
2022/07/04 07:14:51;;;;;;;5.47;3.38;;;23.50;99.90;;;;;;5040323;28;20267;-84
2022/07/04 07:17:17;;;;;;;3.50;3.08;;;23.60;99.90;;;;;;5039682;28;20215;-83
2022/07/04 07:19:43;;;;;;;3.72;3.17;;;23.70;99.90;;;;;;5040631;28;20650;-83
2022/07/04 07:22:10;;;;;;;5.28;3.47;;;23.80;99.90;;;;;;5040817;28;20176;-83
2022/07/04 07:24:36;;;;;;;3.90;3.20;;;23.80;99.90;;;;;;5044091;28;20187;-84
2022/07/04 07:27:02;;;;;;;4.10;3.03;;;23.90;99.90;;;;;;5053353;28;20176;-83
2022/07/04 07:29:27;;;;;;;7.05;2.92;;;23.90;99.90;;;;;;5056141;28;20255;-83
2022/07/04 07:31:53;;;;;;;3.95;2.92;;;24.00;99.90;;;;;;5054812;28;20182;-83
2022/07/04 07:34:18;;;;;;;4.80;4.13;;;24.00;99.90;;;;;;5054973;28;20253;-83
2022/07/04 07:36:44;;;;;;;6.82;3.33;;;24.20;99.90;;;;;;5054799;28;20231;-83
2022/07/04 07:39:11;;;;;;;8.13;2.88;;;24.30;99.90;;;;;;5054796;28;20245;-84
2022/07/04 07:41:37;;;;;;;4.50;3.25;;;24.30;99.90;;;;;;5055091;28;20218;-84
2022/07/04 07:44:03;;;;;;;5.60;2.97;;;24.30;99.90;;;;;;5037767;28;20641;-83
2022/07/04 07:46:28;;;;;;;3.47;2.75;;;24.40;99.90;;;;;;5055674;28;20213;-84
2022/07/04 07:48:54;;;;;;;3.65;2.88;;;24.70;99.90;;;;;;5054690;28;20186;-84
2022/07/04 07:51:19;;;;;;;4.28;2.97;;;24.70;99.90;;;;;;5055307;28;20639;-84
2022/07/04 07:53:45;;;;;;;4.25;2.85;;;24.70;99.90;;;;;;5055000;28;20262;-84
2022/07/04 07:56:11;;;;;;;3.65;2.58;;;24.70;99.90;;;;;;5056306;28;20184;-86
2022/07/04 07:58:36;;;;;;;3.42;2.80;;;24.70;99.90;;;;;;5056151;28;20241;-85
2022/07/04 08:01:02;;;;;;;4.07;2.85;;;;;;;;;;5054900;28;20204;-86
2022/07/04 08:06:13;;;;;;;3.78;2.63;;;24.70;99.90;;;;;;5056574;28;20608;-84
2022/07/04 08:08:40;;;;;;;3.33;2.97;;;24.70;99.90;;;;;;5055183;28;20183;-84
2022/07/04 08:11:05;;;;;;;2.88;2.35;;;24.70;99.90;;;;;;5056450;28;20172;-84
2022/07/04 08:13:31;;;;;;;4.35;2.97;;;24.90;99.90;;;;;;5048599;28;20187;-84
2022/07/04 08:15:58;;;;;;;4.97;2.30;;;25.30;99.90;;;;;;5034881;28;20664;-83
2022/07/04 08:18:23;;;;;;;4.43;3.03;;;25.40;99.90;;;;;;5035855;28;20207;-85
2022/07/04 08:20:50;;;;;;;3.00;2.65;;;25.60;99.90;;;;;;5021302;28;20629;-84
2022/07/04 08:23:16;;;;;;;2.92;2.58;;;25.30;99.90;;;;;;5057233;28;20177;-84
2022/07/04 08:25:42;;;;;;;4.13;3.00;;;25.20;99.90;;;;;;5055482;28;20232;-85
2022/07/04 08:28:08;;;;;;;9.43;3.47;;;25.30;99.90;;;;;;5058759;28;20172;-84
2022/07/04 08:30:34;;;;;;;5.32;3.83;;;25.40;99.90;;;;;;5058307;28;20168;-84
2022/07/04 08:32:59;;;;;;;4.05;3.30;;;25.50;99.90;;;;;;5060015;28;20185;-84
2022/07/04 08:35:25;;;;;;;4.45;3.28;;;25.60;99.90;;;;;;5059655;28;20161;-87
2022/07/04 08:37:53;;;;;;;4.70;3.60;;;25.60;99.90;;;;;;5043866;28;20224;-86
2022/07/04 08:40:37;;;;;;;4.93;3.65;;;25.70;99.90;;;;;;5078612;28;20191;-86
2022/07/04 08:43:03;;;;;;;3.47;3.15;;;25.70;99.90;;;;;;5075999;28;20191;-86
2022/07/04 08:45:34;;;;;;;3.53;2.75;;;25.60;99.90;;;;;;5045268;28;20204;-85
2022/07/04 08:48:07;;;;;;;3.92;3.00;;;25.60;99.90;;;;;;5059704;28;20224;-85
2022/07/04 08:50:38;;;;;;;5.97;3.60;;;25.50;99.90;;;;;;5059601;28;20236;-84
2022/07/04 08:53:14;;;;;;;4.55;3.33;;;25.40;99.90;;;;;;5048028;28;20236;-87
2022/07/04 08:58:26;;;;;;;5.18;3.72;;;25.60;99.90;;;;;;5037331;28;20223;-85
2022/07/04 09:01:00;;;;;;;5.35;3.25;;;25.80;99.90;;;;;;5045922;28;20188;-85
2022/07/04 09:03:27;;;;;;;4.68;3.33;;;25.60;99.90;;;;;;5053321;28;20238;-84
2022/07/04 09:05:53;;;;;;;3.85;3.22;;;25.50;99.90;;;;;;5060163;28;20215;-85
2022/07/04 09:08:20;;;;;;;4.45;3.72;;;25.30;99.90;;;;;;5063123;28;20176;-84
2022/07/04 09:10:47;;;;;;;4.40;3.28;;;25.20;99.90;;;;;;5060219;28;20186;-84
2022/07/04 09:13:17;;;;;;;4.80;3.63;;;25.30;99.90;;;;;;5064495;28;20175;-85
2022/07/04 09:15:45;;;;;;;4.68;3.88;;;25.50;99.90;;;;;;5063079;28;20652;-85
2022/07/04 09:18:25;;;;;;;4.90;3.50;;;25.60;99.90;;;;;;5064691;28;20206;-85
2022/07/04 09:20:57;;;;;;;4.65;3.55;;;25.80;99.90;;;;;;5059998;28;20222;-84
2022/07/04 09:23:27;;;;;;;5.03;3.15;;;26.00;99.90;;;;;;5058980;28;20188;-84
2022/07/04 09:26:21;;;;;;;5.47;3.92;;;26.30;99.90;;;;;;5063975;28;20207;-86
2022/07/04 09:28:56;;;;;;;4.78;3.78;;;26.40;99.90;;;;;;5058646;28;20188;-85
2022/07/04 09:31:24;;;;;;;3.95;3.38;;;26.50;99.90;;;;;;5056469;28;20502;-85
2022/07/04 09:34:03;;;;;;;4.35;2.97;;;26.50;99.90;;;;;;5055862;28;20172;-85
2022/07/04 09:36:31;;;;;;;3.88;3.13;;;26.80;99.90;;;;;;5058093;28;20192;-86
2022/07/04 09:39:09;;;;;;;5.00;3.20;;;26.90;99.90;;;;;;5042393;28;20211;-87
2022/07/04 09:41:52;;;;;;;3.50;2.95;;;27.20;99.90;;;;;;5063491;28;20624;-86
2022/07/04 09:44:19;;;;;;;3.92;3.10;;;27.50;99.90;;;;;;5061320;28;20172;-86
2022/07/04 09:46:44;;;;;;;4.72;3.70;;;27.80;99.90;;;;;;5062917;28;20188;-87
2022/07/04 09:49:11;;;;;;;3.88;3.45;;;27.90;99.90;;;;;;5063520;28;20253;-87
2022/07/04 09:51:45;;;;;;;4.07;3.40;;;27.70;99.90;;;;;;5062207;28;20188;-87
2022/07/04 09:54:31;;;;;;;4.22;3.10;;;27.60;99.90;;;;;;5065433;28;20265;-87
2022/07/04 09:56:59;;;;;;;3.53;2.90;;;27.70;99.90;;;;;;5065149;28;20227;-86
2022/07/04 09:59:27;;;;;;;4.13;3.22;;;27.60;99.90;;;;;;5051818;28;20204;-86
2022/07/04 10:02:09;;;;;;;4.28;3.33;;;27.70;99.90;;;;;;5052514;28;20177;-89
2022/07/04 10:04:50;;;;;;;5.05;3.92;;;27.70;99.90;;;;;;5051985;28;20180;-86
2022/07/04 10:07:30;;;;;;;5.00;3.28;;;27.60;99.90;;;;;;5053092;28;20164;-84
2022/07/04 10:09:55;;;;;;;4.40;3.30;;;27.70;99.90;;;;;;5049595;28;20245;-84
2022/07/04 10:12:28;;;;;;;4.10;3.53;;;27.90;99.90;;;;;;5023706;28;20172;-87
2022/07/04 10:14:55;;;;;;;4.85;3.42;;;28.00;99.90;;;;;;5052586;28;20180;-87
2022/07/04 10:17:23;;;;;;;4.22;3.08;;;27.70;99.90;;;;;;5056307;28;20199;-87
2022/07/04 10:19:51;;;;;;;4.57;3.20;;;27.60;99.90;;;;;;5051486;28;20192;-89
2022/07/04 10:22:19;;;;;;;4.45;3.20;;;27.70;99.90;;;;;;5042874;28;21252;-87
2022/07/04 10:24:44;;;;;;;4.13;3.08;;;28.00;99.90;;;;;;5030067;28;20189;-86
2022/07/04 10:27:11;;;;;;;3.00;2.60;;;27.90;97.20;;;;;;5032424;28;20179;-86
2022/07/04 10:29:38;;;;;;;3.55;3.05;;;27.70;98.60;;;;;;5031139;28;20231;-85
2022/07/04 10:32:06;;;;;;;3.83;3.00;;;27.80;97.80;;;;;;5040141;28;20176;-85
2022/07/04 10:34:39;;;;;;;6.28;3.30;;;27.70;97.40;;;;;;5045059;28;20241;-85
2022/07/04 10:37:05;;;;;;;6.32;2.80;;;27.60;97.60;;;;;;5045249;28;20201;-85
2022/07/04 10:39:31;;;;;;;4.80;2.90;;;27.70;98.40;;;;;;5008860;28;20652;-86
2022/07/04 10:42:01;;;;;;;3.47;3.03;;;28.00;98.60;;;;;;5020044;28;20172;-85
2022/07/04 10:44:34;;;;;;;3.65;3.00;;;28.10;97.90;;;;;;5043742;28;20541;-86
2022/07/04 10:47:00;;;;;;;3.85;3.10;;;28.30;97.50;;;;;;5046705;28;20164;-87
2022/07/04 10:49:28;;;;;;;3.92;2.90;;;28.20;96.60;;;;;;5053002;28;20648;-86
2022/07/04 10:51:56;;;;;;;4.22;3.20;;;28.40;97.10;;;;;;5038346;28;20184;-85
2022/07/04 10:54:31;;;;;;;4.07;3.22;;;28.70;96.20;;;;;;5036590;28;20224;-86
2022/07/04 10:57:14;;;;;;;3.58;2.75;;;28.80;94.20;;;;;;5036250;28;20679;-86
2022/07/04 11:00:03;;;;;;;4.22;3.20;;;28.60;93.10;;;;;;5041596;28;20626;-85
2022/07/04 11:02:38;;;;;;;3.97;2.85;;;28.20;94.10;;;;;;5040114;28;20226;-85
2022/07/04 11:05:08;;;;;;;3.55;2.55;;;28.10;94.60;;;;;;5053769;28;20172;-86
2022/07/04 11:07:36;;;;;;;3.70;2.65;;;28.20;93.10;;;;;;5045485;28;20180;-86
2022/07/04 11:10:11;;;;;;;4.88;3.22;;;28.30;92.40;;;;;;5049274;28;20171;-86
2022/07/04 11:12:58;;;;;;;3.20;2.85;;;28.40;93.20;;;;;;5036299;28;20218;-86
2022/07/04 11:15:32;;;;;;;2.50;2.30;;;28.30;92.70;;;;;;5042118;28;20184;-87
2022/07/04 11:18:13;;;;;;;3.40;3.05;;;28.20;91.70;;;;;;5043938;28;20199;-87
2022/07/04 11:20:43;;;;;;;4.38;3.20;;;28.00;92.60;;;;;;5042336;28;20633;-87
2022/07/04 11:23:12;;;;;;;3.88;3.25;;;27.90;91.80;;;;;;5044651;28;20662;-86
2022/07/04 11:25:40;;;;;;;4.47;3.30;;;27.90;91.60;;;;;;5042914;28;20601;-86
2022/07/04 11:28:24;;;;;;;4.63;3.10;;;27.90;91.50;;;;;;5045163;28;20187;-85
2022/07/04 11:30:55;;;;;;;4.55;3.53;;;27.90;92.00;;;;;;5039251;28;20241;-86
2022/07/04 11:33:27;;;;;;;2.80;2.60;;;27.90;91.60;;;;;;5037335;28;20578;-86
2022/07/04 11:36:20;;;;;;;3.05;2.75;;;27.90;90.30;;;;;;5041853;28;20200;-86
2022/07/04 11:38:46;;;;;;;5.03;3.30;;;27.90;89.80;;;;;;5040272;28;20176;-87
2022/07/04 11:46:41;;;;;;;2.70;2.42;;;27.90;87.70;;;;;;5044536;28;20238;-85
2022/07/04 11:49:11;;;;;;;5.53;2.65;;;27.90;85.80;;;;;;5033473;28;20177;-85
2022/07/04 11:51:45;;;;;;;3.03;2.70;;;28.00;87.40;;;;;;5038544;28;20272;-85
2022/07/04 11:54:11;;;;;;;5.40;2.53;;;28.40;87.60;;;;;;5043598;28;20219;-84
2022/07/04 11:56:37;;;;;;;3.40;3.08;;;28.50;84.80;;;;;;5041952;28;20669;-85
2022/07/04 11:59:14;;;;;;;3.08;2.78;;;28.40;86.30;;;;;;5042762;28;20183;-85
2022/07/04 12:01:42;;;;;;;2.97;2.65;;;28.10;85.30;;;;;;5038780;28;20211;-85
2022/07/04 12:04:20;;;;;;;3.28;2.47;;;28.10;83.70;;;;;;5042223;28;20219;-86
2022/07/04 12:06:48;;;;;;;3.33;2.63;;;28.30;83.00;;;;;;5036277;28;20188;-90
2022/07/04 12:09:17;;;;;;;5.15;3.38;;;28.10;85.20;;;;;;5015078;28;20181;-85
2022/07/04 12:11:54;;;;;;;3.10;2.80;;;27.90;85.20;;;;;;5031214;28;20185;-85
2022/07/04 12:14:20;;;;;;;2.95;2.67;;;27.80;85.90;;;;;;5035157;28;20172;-85
2022/07/04 12:16:47;;;;;;;4.38;2.50;;;27.50;85.20;;;;;;5001940;28;20216;-85
2022/07/04 12:19:13;;;;;;;3.53;2.83;;;27.50;83.70;;;;;;5033938;28;20212;-85
2022/07/04 12:21:38;;;;;;;4.10;2.95;;;27.40;84.40;;;;;;5033597;28;20212;-87
2022/07/04 12:24:05;;;;;;;3.15;2.67;;;27.40;86.10;;;;;;5043002;28;20177;-87
2022/07/04 12:26:35;;;;;;;3.40;2.63;;;27.50;85.60;;;;;;5035278;28;20238;-85
2022/07/04 12:29:00;;;;;;;2.10;1.90;;;27.70;84.40;;;;;;5018823;28;20214;-84
2022/07/04 12:31:53;;;;;;;2.83;2.40;;;27.90;82.50;;;;;;5034211;28;20272;-87
2022/07/04 12:34:19;;;;;;;3.13;2.60;;;28.00;83.40;;;;;;5015689;28;20203;-85
2022/07/04 12:36:56;;;;;;;5.78;2.80;;;28.10;80.40;;;;;;5035612;28;20204;-84
2022/07/04 12:39:37;;;;;;;3.58;2.67;;;28.20;81.20;;;;;;5018559;28;20187;-84
2022/07/04 12:42:09;;;;;;;2.95;2.47;;;28.30;79.90;;;;;;5036293;28;20248;-84
2022/07/04 12:44:36;;;;;;;2.55;2.28;;;28.20;79.80;;;;;;5034521;28;20191;-85
2022/07/04 12:47:04;;;;;;;2.88;2.28;;;28.30;78.30;;;;;;5040996;28;20219;-84
2022/07/04 12:49:31;;;;;;;2.20;2.00;;;28.20;79.00;;;;;;5017917;28;20295;-84
2022/07/04 12:52:08;;;;;;;2.38;2.13;;;28.30;75.90;;;;;;5035897;28;20193;-86
2022/07/04 12:54:35;;;;;;;1.88;1.73;;;28.30;76.40;;;;;;5017846;28;20236;-87
2022/07/04 12:57:06;;;;;;;1.90;1.77;;;28.20;77.50;;;;;;5041899;28;20204;-85
2022/07/04 12:59:32;;;;;;;1.92;1.83;;;28.10;77.20;;;;;;5052332;28;20184;-86
2022/07/04 13:01:57;;;;;;;2.53;2.08;;;28.00;77.10;;;;;;5049908;28;20199;-84
2022/07/04 13:04:23;;;;;;;2.40;2.10;;;27.90;77.80;;;;;;5047783;28;20190;-87
2022/07/04 13:06:48;;;;;;;7.50;4.13;;;27.80;77.50;;;;;;5046339;28;20183;-84